createdAt,value
2023-03-11T00:00:24.122Z,3.21
2023-03-11T00:01:24.148Z,3.23
2023-03-11T00:02:24.263Z,3.21
2023-03-11T00:03:24.191Z,3.16
2023-03-11T00:04:24.211Z,3.19
2023-03-11T00:05:24.306Z,3.26
2023-03-11T00:06:24.272Z,3.21
2023-03-11T00:07:24.276Z,3.23
2023-03-11T00:08:24.310Z,3.19
2023-03-11T00:09:24.321Z,3.20
2023-03-11T00:10:24.352Z,3.09
2023-03-11T00:11:24.363Z,3.13
2023-03-11T00:12:24.382Z,3.17
2023-03-11T00:13:24.406Z,3.26
2023-03-11T00:14:24.432Z,3.21
2023-03-11T00:15:24.450Z,3.21
2023-03-11T00:16:24.479Z,3.19
2023-03-11T00:17:24.492Z,3.21
2023-03-11T00:18:24.512Z,3.24
2023-03-11T00:19:24.535Z,3.21
2023-03-11T00:20:24.555Z,3.23
2023-03-11T00:21:24.580Z,3.24
2023-03-11T00:22:24.617Z,3.29
2023-03-11T00:23:24.626Z,3.21
2023-03-11T00:24:24.644Z,3.16
2023-03-11T00:25:24.668Z,3.29
2023-03-11T00:26:24.688Z,3.26
2023-03-11T00:27:24.714Z,3.21
2023-03-11T00:28:24.726Z,3.09
2023-03-11T00:29:24.750Z,3.23
2023-03-11T00:30:24.771Z,3.19
2023-03-11T00:31:24.794Z,3.19
2023-03-11T00:32:24.810Z,3.17
2023-03-11T00:33:24.850Z,3.14
2023-03-11T00:34:24.856Z,3.13
2023-03-11T00:35:24.909Z,3.16
2023-03-11T00:36:24.897Z,3.13
2023-03-11T00:37:24.918Z,3.11
2023-03-11T00:38:24.981Z,3.09
2023-03-11T00:39:24.963Z,3.03
2023-03-11T00:40:25.001Z,3.06
2023-03-11T00:41:25.006Z,2.99
2023-03-11T00:42:25.039Z,3.03
2023-03-11T00:43:25.054Z,3.01
2023-03-11T00:44:25.068Z,2.96
2023-03-11T00:45:25.095Z,3.03
2023-03-11T00:46:25.200Z,3.05
2023-03-11T00:47:25.137Z,3.01
2023-03-11T00:48:25.157Z,3.03
2023-03-11T00:49:25.176Z,2.93
2023-03-11T00:50:25.211Z,3.01
2023-03-11T00:51:25.220Z,3.01
2023-03-11T00:52:25.239Z,3.03
2023-03-11T00:53:25.265Z,2.99
2023-03-11T00:54:25.304Z,3.06
2023-03-11T00:55:25.317Z,3.03
2023-03-11T00:56:25.325Z,3.02
2023-03-11T00:57:25.348Z,3.05
2023-03-11T00:58:25.367Z,3.02
2023-03-11T00:59:25.395Z,3.06
2023-03-11T01:00:25.409Z,3.09
2023-03-11T01:01:25.505Z,3.06
2023-03-11T01:02:25.453Z,3.09
2023-03-11T01:03:25.475Z,3.13
2023-03-11T01:04:25.533Z,3.05
2023-03-11T01:05:25.521Z,2.96
2023-03-11T01:06:30.156Z,2.99
2023-03-11T01:07:25.565Z,2.99
2023-03-11T01:08:25.580Z,2.99
2023-03-11T01:09:25.606Z,3.03
2023-03-11T01:10:25.653Z,3.03
2023-03-11T01:11:25.646Z,2.98
2023-03-11T01:12:25.665Z,3.01
2023-03-11T01:13:25.689Z,3.01
2023-03-11T01:14:25.710Z,3.03
2023-03-11T01:15:25.731Z,3.05
2023-03-11T01:16:25.826Z,3.06
2023-03-11T01:17:25.773Z,2.99
2023-03-11T01:18:25.805Z,3.01
2023-03-11T01:19:25.824Z,3.05
2023-03-11T01:20:25.847Z,3.06
2023-03-11T01:21:25.862Z,3.08
2023-03-11T01:22:25.878Z,3.09
2023-03-11T01:23:25.901Z,3.08
2023-03-11T01:24:25.922Z,3.08
2023-03-11T01:25:25.946Z,3.03
2023-03-11T01:26:25.986Z,3.09
2023-03-11T01:27:25.991Z,2.99
2023-03-11T01:28:26.011Z,3.03
2023-03-11T01:29:26.037Z,3.01
2023-03-11T01:30:26.052Z,3.05
2023-03-11T01:31:26.137Z,3.09
2023-03-11T01:32:26.167Z,3.14
2023-03-11T01:33:26.111Z,3.08
2023-03-11T01:34:26.135Z,3.13
2023-03-11T01:35:26.324Z,3.02
2023-03-11T01:36:26.178Z,3.11
2023-03-11T01:37:26.202Z,3.09
2023-03-11T01:38:26.223Z,3.09
2023-03-11T01:39:26.238Z,3.09
2023-03-11T01:40:26.264Z,3.14
2023-03-11T01:41:26.283Z,3.11
2023-03-11T01:42:26.328Z,3.09
2023-03-11T01:43:26.327Z,3.05
2023-03-11T01:44:26.366Z,3.20
2023-03-11T01:45:26.371Z,3.14
2023-03-11T01:46:26.435Z,3.11
2023-03-11T01:47:26.408Z,3.13
2023-03-11T01:48:26.431Z,3.14
2023-03-11T01:49:26.463Z,3.11
2023-03-11T01:50:26.476Z,3.16
2023-03-11T01:51:26.496Z,3.16
2023-03-11T01:52:26.517Z,3.11
2023-03-11T01:53:26.538Z,3.03
2023-03-11T01:54:26.566Z,3.17
2023-03-11T01:55:26.584Z,3.14
2023-03-11T01:56:26.607Z,3.14
2023-03-11T01:57:26.628Z,3.11
2023-03-11T01:58:26.697Z,3.08
2023-03-11T01:59:26.667Z,3.02
2023-03-11T02:00:26.689Z,3.01
2023-03-11T02:01:26.797Z,3.09
2023-03-11T02:02:26.846Z,3.11
2023-03-11T02:03:26.755Z,3.13
2023-03-11T02:04:26.774Z,3.09
2023-03-11T02:05:26.795Z,3.14
2023-03-11T02:06:26.823Z,3.06
2023-03-11T02:07:26.840Z,3.14
2023-03-11T02:08:26.872Z,3.14
2023-03-11T02:09:26.884Z,3.11
2023-03-11T02:10:26.908Z,3.14
2023-03-11T02:11:26.927Z,3.16
2023-03-11T02:12:27.100Z,3.11
2023-03-11T02:13:26.971Z,3.09
2023-03-11T02:14:27.018Z,3.08
2023-03-11T02:15:27.038Z,3.09
2023-03-11T02:16:27.134Z,3.09
2023-03-11T02:17:27.061Z,3.20
2023-03-11T02:18:27.082Z,3.21
2023-03-11T02:19:27.115Z,3.17
2023-03-11T02:20:27.127Z,3.16
2023-03-11T02:21:27.146Z,3.21
2023-03-11T02:22:27.173Z,3.19
2023-03-11T02:23:27.190Z,3.05
2023-03-11T02:24:27.215Z,3.17
2023-03-11T02:25:27.235Z,3.24
2023-03-11T02:26:27.261Z,3.13
2023-03-11T02:27:27.280Z,3.21
2023-03-11T02:28:27.308Z,3.19
2023-03-11T02:29:27.326Z,3.27
2023-03-11T02:30:27.377Z,3.19
2023-03-11T02:31:27.398Z,3.24
2023-03-11T02:32:27.418Z,3.17
2023-03-11T02:33:27.420Z,3.17
2023-03-11T02:34:27.446Z,3.17
2023-03-11T02:35:27.456Z,3.14
2023-03-11T02:36:27.477Z,3.13
2023-03-11T02:37:27.497Z,3.05
2023-03-11T02:38:27.519Z,3.08
2023-03-11T02:39:27.540Z,3.09
2023-03-11T02:40:27.563Z,3.06
2023-03-11T02:41:27.604Z,3.08
2023-03-11T02:42:27.612Z,3.08
2023-03-11T02:43:27.629Z,3.05
2023-03-11T02:44:27.650Z,3.03
2023-03-11T02:45:27.673Z,3.02
2023-03-11T02:46:27.759Z,3.06
2023-03-11T02:47:27.729Z,3.03
2023-03-11T02:48:27.768Z,2.96
2023-03-11T02:49:27.771Z,2.98
2023-03-11T02:50:27.791Z,3.08
2023-03-11T02:51:27.805Z,3.01
2023-03-11T02:52:27.815Z,3.06
2023-03-11T02:53:27.840Z,3.02
2023-03-11T02:54:27.864Z,3.06
2023-03-11T02:55:27.890Z,3.06
2023-03-11T02:56:27.901Z,3.08
2023-03-11T02:57:27.924Z,3.03
2023-03-11T02:58:27.951Z,3.02
2023-03-11T02:59:27.965Z,3.03
2023-03-11T03:00:27.985Z,3.11
2023-03-11T03:01:28.009Z,3.06
2023-03-11T03:02:28.051Z,2.99
2023-03-11T03:03:28.063Z,2.99
2023-03-11T03:04:28.161Z,3.02
2023-03-11T03:05:28.099Z,2.98
2023-03-11T03:06:28.117Z,3.01
2023-03-11T03:07:28.138Z,2.99
2023-03-11T03:08:28.158Z,3.03
2023-03-11T03:09:28.178Z,3.03
2023-03-11T03:10:28.210Z,3.01
2023-03-11T03:11:28.221Z,3.03
2023-03-11T03:12:28.244Z,3.03
2023-03-11T03:13:28.276Z,3.05
2023-03-11T03:14:28.287Z,2.95
2023-03-11T03:15:28.309Z,2.93
2023-03-11T03:16:28.445Z,2.88
2023-03-11T03:17:28.472Z,2.72
2023-03-11T03:18:28.395Z,2.76
2023-03-11T03:19:28.394Z,2.66
2023-03-11T03:20:28.415Z,2.67
2023-03-11T03:21:28.535Z,2.65
2023-03-11T03:22:28.464Z,2.69
2023-03-11T03:23:28.481Z,2.60
2023-03-11T03:24:28.502Z,2.63
2023-03-11T03:25:28.523Z,2.67
2023-03-11T03:26:28.545Z,2.67
2023-03-11T03:27:28.565Z,2.69
2023-03-11T03:28:28.589Z,2.66
2023-03-11T03:29:28.607Z,2.59
2023-03-11T03:30:28.631Z,2.60
2023-03-11T03:31:28.700Z,2.55
2023-03-11T03:32:28.707Z,2.52
2023-03-11T03:33:28.692Z,2.52
2023-03-11T03:34:28.739Z,2.58
2023-03-11T03:35:28.739Z,2.51
2023-03-11T03:36:28.769Z,2.42
2023-03-11T03:37:28.778Z,2.40
2023-03-11T03:38:28.801Z,2.36
2023-03-11T03:39:30.665Z,2.34
2023-03-11T03:40:28.839Z,2.34
2023-03-11T03:41:28.870Z,2.38
2023-03-11T03:42:28.885Z,2.29
2023-03-11T03:43:28.904Z,2.38
2023-03-11T03:44:28.937Z,2.36
2023-03-11T03:45:28.948Z,2.22
2023-03-11T03:46:28.976Z,2.23
2023-03-11T03:47:28.997Z,2.18
2023-03-11T03:48:29.012Z,2.23
2023-03-11T03:49:29.033Z,2.16
2023-03-11T03:50:29.076Z,2.11
2023-03-11T03:51:29.075Z,2.04
2023-03-11T03:52:29.103Z,2.16
2023-03-11T03:53:29.116Z,2.11
2023-03-11T03:54:29.140Z,2.12
2023-03-11T03:55:29.166Z,2.05
2023-03-11T03:56:29.185Z,2.08
2023-03-11T03:57:29.202Z,1.98
2023-03-11T03:58:29.226Z,2.08
2023-03-11T03:59:29.246Z,2.06
2023-03-11T04:00:29.268Z,1.98
2023-03-11T04:01:29.286Z,1.93
2023-03-11T04:02:29.341Z,1.93
2023-03-11T04:03:29.370Z,1.97
2023-03-11T04:04:29.360Z,1.89
2023-03-11T04:05:29.375Z,1.84
2023-03-11T04:06:29.420Z,1.86
2023-03-11T04:07:29.419Z,1.87
2023-03-11T04:08:29.638Z,1.84
2023-03-11T04:09:29.464Z,1.90
2023-03-11T04:10:29.478Z,1.84
2023-03-11T04:11:29.510Z,1.79
2023-03-11T04:12:29.519Z,1.83
2023-03-11T04:13:29.543Z,1.79
2023-03-11T04:14:29.562Z,1.75
2023-03-11T04:15:29.584Z,1.83
2023-03-11T04:16:29.676Z,1.79
2023-03-11T04:17:29.624Z,1.82
2023-03-11T04:18:29.646Z,1.76
2023-03-11T04:19:29.865Z,1.84
2023-03-11T04:20:29.686Z,1.72
2023-03-11T04:21:29.706Z,1.78
2023-03-11T04:22:29.747Z,1.72
2023-03-11T04:23:29.751Z,1.71
2023-03-11T04:24:29.770Z,1.69
2023-03-11T04:25:29.790Z,1.68
2023-03-11T04:26:29.816Z,1.78
2023-03-11T04:27:29.834Z,1.74
2023-03-11T04:28:29.859Z,1.72
2023-03-11T04:29:29.872Z,1.69
2023-03-11T04:30:29.891Z,1.71
2023-03-11T04:31:29.910Z,1.61
2023-03-11T04:32:30.140Z,1.65
2023-03-11T04:33:29.956Z,1.65
2023-03-11T04:34:29.975Z,1.65
2023-03-11T04:35:30.026Z,1.60
2023-03-11T04:36:30.017Z,1.58
2023-03-11T04:37:30.032Z,1.57
2023-03-11T04:38:30.077Z,1.60
2023-03-11T04:39:30.073Z,1.51
2023-03-11T04:40:30.096Z,1.57
2023-03-11T04:41:30.113Z,1.58
2023-03-11T04:42:30.137Z,1.53
2023-03-11T04:43:30.161Z,1.57
2023-03-11T04:44:30.194Z,1.57
2023-03-11T04:45:30.200Z,1.65
2023-03-11T04:46:30.277Z,1.64
2023-03-11T04:47:30.238Z,1.71
2023-03-11T04:48:30.261Z,1.54
2023-03-11T04:49:30.277Z,1.64
2023-03-11T04:50:30.301Z,1.58
2023-03-11T04:51:30.320Z,1.56
2023-03-11T04:52:30.339Z,1.56
2023-03-11T04:53:30.362Z,1.51
2023-03-11T04:54:30.416Z,1.53
2023-03-11T04:55:30.409Z,1.60
2023-03-11T04:56:30.421Z,1.58
2023-03-11T04:57:30.440Z,1.58
2023-03-11T04:58:30.464Z,1.48
2023-03-11T04:59:30.483Z,1.50
2023-03-11T05:00:30.518Z,1.46
2023-03-11T05:01:30.575Z,1.46
2023-03-11T05:02:30.545Z,1.35
2023-03-11T05:03:30.652Z,1.36
2023-03-11T05:04:30.675Z,1.38
2023-03-11T05:05:30.607Z,1.39
2023-03-11T05:06:30.635Z,1.36
2023-03-11T05:07:30.650Z,1.36
2023-03-11T05:08:30.670Z,1.35
2023-03-11T05:09:30.690Z,1.36
2023-03-11T05:10:31.970Z,1.36
2023-03-11T05:11:30.734Z,1.33
2023-03-11T05:12:30.754Z,1.35
2023-03-11T05:13:30.773Z,1.24
2023-03-11T05:14:30.799Z,1.20
2023-03-11T05:15:30.815Z,1.26
2023-03-11T05:16:30.844Z,1.29
2023-03-11T05:17:30.854Z,1.22
2023-03-11T05:18:30.879Z,1.22
2023-03-11T05:19:30.908Z,1.18
2023-03-11T05:20:30.918Z,1.22
2023-03-11T05:21:30.941Z,1.15
2023-03-11T05:22:30.960Z,1.30
2023-03-11T05:23:30.978Z,1.24
2023-03-11T05:24:31.002Z,1.21
2023-03-11T05:25:31.020Z,1.20
2023-03-11T05:26:31.060Z,1.15
2023-03-11T05:27:31.061Z,1.18
2023-03-11T05:28:31.084Z,1.15
2023-03-11T05:29:31.100Z,1.21
2023-03-11T05:30:31.123Z,1.18
2023-03-11T05:31:31.220Z,1.17
2023-03-11T05:32:31.217Z,1.28
2023-03-11T05:33:31.185Z,1.21
2023-03-11T05:34:31.207Z,1.24
2023-03-11T05:35:31.282Z,1.21
2023-03-11T05:36:31.250Z,1.18
2023-03-11T05:37:31.270Z,1.21
2023-03-11T05:38:31.294Z,1.24
2023-03-11T05:39:31.315Z,1.30
2023-03-11T05:40:31.336Z,1.30
2023-03-11T05:41:31.393Z,1.36
2023-03-11T05:42:31.398Z,1.32
2023-03-11T05:43:31.401Z,1.35
2023-03-11T05:44:31.469Z,1.35
2023-03-11T05:45:31.445Z,1.28
2023-03-11T05:46:31.652Z,1.24
2023-03-11T05:47:31.500Z,1.36
2023-03-11T05:48:31.504Z,1.38
2023-03-11T05:49:31.523Z,1.35
2023-03-11T05:50:31.550Z,1.28
2023-03-11T05:51:31.566Z,1.32
2023-03-11T05:52:31.588Z,1.36
2023-03-11T05:53:31.608Z,1.24
2023-03-11T05:54:31.628Z,1.40
2023-03-11T05:55:31.652Z,1.28
2023-03-11T05:56:31.669Z,1.20
2023-03-11T05:57:31.690Z,1.26
2023-03-11T05:58:31.765Z,1.24
2023-03-11T05:59:31.730Z,1.24
2023-03-11T06:00:31.751Z,1.29
2023-03-11T06:01:31.770Z,1.18
2023-03-11T06:02:31.791Z,1.26
2023-03-11T06:03:31.812Z,1.22
2023-03-11T06:04:31.992Z,1.22
2023-03-11T06:05:31.854Z,1.24
2023-03-11T06:06:31.872Z,1.24
2023-03-11T06:07:31.895Z,1.15
2023-03-11T06:08:31.915Z,1.15
2023-03-11T06:09:31.937Z,1.26
2023-03-11T06:10:31.954Z,1.20
2023-03-11T06:11:31.976Z,1.21
2023-03-11T06:12:31.995Z,1.18
2023-03-11T06:13:32.017Z,1.24
2023-03-11T06:14:32.056Z,1.11
2023-03-11T06:15:32.069Z,1.18
2023-03-11T06:16:32.093Z,1.11
2023-03-11T06:17:32.100Z,1.21
2023-03-11T06:18:32.119Z,1.24
2023-03-11T06:19:32.161Z,1.18
2023-03-11T06:20:32.164Z,1.35
2023-03-11T06:21:32.184Z,1.32
2023-03-11T06:22:32.206Z,1.33
2023-03-11T06:23:32.223Z,1.35
2023-03-11T06:24:32.247Z,1.33
2023-03-11T06:25:32.265Z,1.21
2023-03-11T06:26:32.283Z,1.21
2023-03-11T06:27:32.308Z,1.36
2023-03-11T06:28:32.326Z,1.36
2023-03-11T06:29:32.349Z,1.36
2023-03-11T06:30:32.388Z,1.47
2023-03-11T06:31:32.426Z,1.58
2023-03-11T06:32:32.456Z,1.65
2023-03-11T06:33:32.443Z,1.71
2023-03-11T06:34:32.453Z,1.74
2023-03-11T06:35:32.575Z,1.82
2023-03-11T06:36:32.494Z,1.90
2023-03-11T06:37:32.520Z,1.90
2023-03-11T06:38:32.535Z,2.11
2023-03-11T06:39:32.557Z,2.18
2023-03-11T06:40:32.576Z,2.24
2023-03-11T06:41:32.600Z,2.30
2023-03-11T06:42:32.620Z,2.42
2023-03-11T06:43:32.646Z,2.36
2023-03-11T06:44:32.661Z,2.41
2023-03-11T06:45:32.720Z,2.58
2023-03-11T06:46:32.734Z,2.60
2023-03-11T06:47:32.734Z,2.67
2023-03-11T06:48:32.746Z,2.63
2023-03-11T06:49:32.770Z,2.65
2023-03-11T06:50:32.790Z,2.63
2023-03-11T06:51:32.818Z,2.59
2023-03-11T06:52:32.836Z,2.66
2023-03-11T06:53:32.855Z,2.62
2023-03-11T06:54:32.876Z,2.70
2023-03-11T06:55:32.897Z,2.66
2023-03-11T06:56:32.917Z,2.66
2023-03-11T06:57:32.949Z,2.65
2023-03-11T06:58:32.960Z,2.80
2023-03-11T06:59:32.988Z,2.63
2023-03-11T07:00:33.016Z,2.77
2023-03-11T07:01:33.079Z,2.78
2023-03-11T07:02:33.070Z,2.67
2023-03-11T07:03:33.069Z,2.81
2023-03-11T07:04:33.103Z,2.65
2023-03-11T07:05:33.112Z,2.73
2023-03-11T07:06:33.132Z,2.60
2023-03-11T07:07:33.155Z,2.73
2023-03-11T07:08:33.178Z,2.65
2023-03-11T07:09:33.200Z,2.67
2023-03-11T07:10:33.228Z,2.78
2023-03-11T07:11:33.243Z,2.81
2023-03-11T07:12:33.263Z,2.81
2023-03-11T07:13:33.436Z,2.91
2023-03-11T07:14:33.309Z,2.96
2023-03-11T07:15:33.337Z,3.02
2023-03-11T07:16:33.380Z,2.95
2023-03-11T07:17:33.374Z,2.96
2023-03-11T07:18:33.421Z,3.01
2023-03-11T07:19:33.418Z,2.88
2023-03-11T07:20:33.438Z,2.98
2023-03-11T07:21:33.479Z,2.93
2023-03-11T07:22:33.510Z,3.05
2023-03-11T07:23:33.505Z,3.08
2023-03-11T07:24:33.525Z,3.14
2023-03-11T07:25:33.559Z,3.19
2023-03-11T07:26:33.574Z,3.20
2023-03-11T07:27:33.600Z,3.19
2023-03-11T07:28:33.613Z,3.24
2023-03-11T07:29:33.636Z,3.19
2023-03-11T07:30:33.665Z,3.19
2023-03-11T07:31:33.788Z,3.24
2023-03-11T07:32:33.731Z,3.16
2023-03-11T07:33:34.337Z,3.16
2023-03-11T07:34:33.764Z,3.19
2023-03-11T07:35:33.789Z,3.11
2023-03-11T07:36:33.790Z,3.19
2023-03-11T07:37:33.811Z,3.11
2023-03-11T07:38:33.831Z,3.06
2023-03-11T07:39:33.857Z,3.11
2023-03-11T07:40:33.876Z,3.11
2023-03-11T07:41:33.902Z,3.09
2023-03-11T07:42:33.958Z,3.17
2023-03-11T07:43:33.945Z,3.20
2023-03-11T07:44:33.965Z,3.21
2023-03-11T07:45:33.989Z,3.21
2023-03-11T07:46:34.013Z,3.21
2023-03-11T07:47:34.031Z,3.17
2023-03-11T07:48:34.052Z,3.11
2023-03-11T07:49:34.082Z,3.09
2023-03-11T07:50:34.118Z,3.19
2023-03-11T07:51:34.118Z,3.08
2023-03-11T07:52:34.138Z,3.16
2023-03-11T07:53:34.165Z,3.06
2023-03-11T07:54:34.183Z,3.24
2023-03-11T07:55:34.207Z,3.17
2023-03-11T07:56:34.224Z,3.23
2023-03-11T07:57:34.249Z,3.20
2023-03-11T07:58:34.279Z,3.19
2023-03-11T07:59:34.319Z,3.29
2023-03-11T08:00:34.317Z,3.23
2023-03-11T08:01:34.342Z,3.39
2023-03-11T08:02:34.416Z,3.29
2023-03-11T08:03:34.412Z,3.35
2023-03-11T08:04:34.410Z,3.42
2023-03-11T08:05:34.432Z,3.56
2023-03-11T08:06:37.096Z,3.56
2023-03-11T08:07:34.481Z,3.60
2023-03-11T08:08:34.489Z,3.67
2023-03-11T08:09:34.514Z,3.71
2023-03-11T08:10:34.536Z,3.74
2023-03-11T08:11:34.561Z,3.82
2023-03-11T08:12:34.583Z,3.72
2023-03-11T08:13:34.603Z,3.67
2023-03-11T08:14:34.628Z,3.74
2023-03-11T08:15:34.692Z,3.71
2023-03-11T08:16:34.669Z,3.75
2023-03-11T08:17:34.705Z,3.82
2023-03-11T08:18:34.711Z,3.89
2023-03-11T08:19:34.737Z,3.94
2023-03-11T08:20:34.762Z,4.07
2023-03-11T08:21:34.793Z,4.15
2023-03-11T08:22:34.825Z,4.20
2023-03-11T08:23:34.837Z,4.08
2023-03-11T08:24:34.850Z,4.17
2023-03-11T08:25:34.870Z,4.21
2023-03-11T08:26:34.902Z,4.22
2023-03-11T08:27:34.914Z,4.28
2023-03-11T08:28:34.945Z,4.29
2023-03-11T08:29:34.962Z,4.29
2023-03-11T08:30:34.985Z,4.29
2023-03-11T08:31:35.098Z,4.38
2023-03-11T08:32:35.073Z,4.42
2023-03-11T08:33:35.049Z,4.47
2023-03-11T08:34:35.078Z,4.46
2023-03-11T08:35:35.142Z,4.44
2023-03-11T08:36:35.115Z,4.56
2023-03-11T08:37:35.140Z,4.58
2023-03-11T08:38:35.202Z,4.58
2023-03-11T08:39:35.185Z,4.66
2023-03-11T08:40:35.205Z,4.65
2023-03-11T08:41:35.232Z,4.65
2023-03-11T08:42:37.126Z,4.58
2023-03-11T08:43:35.279Z,4.48
2023-03-11T08:44:35.298Z,4.56
2023-03-11T08:45:35.329Z,4.56
2023-03-11T08:46:35.359Z,4.74
2023-03-11T08:47:35.368Z,4.92
2023-03-11T08:48:35.387Z,4.87
2023-03-11T08:49:35.415Z,4.95
2023-03-11T08:50:47.329Z,5.03
2023-03-11T08:51:35.456Z,5.13
2023-03-11T08:52:35.479Z,5.27
2023-03-11T08:53:35.502Z,5.18
2023-03-11T08:54:35.574Z,5.21
2023-03-11T08:55:35.557Z,5.18
2023-03-11T08:56:35.570Z,5.23
2023-03-11T08:57:35.598Z,5.33
2023-03-11T08:58:35.625Z,5.33
2023-03-11T08:59:35.642Z,5.30
2023-03-11T09:00:35.664Z,5.41
2023-03-11T09:01:35.691Z,5.42
2023-03-11T09:02:35.761Z,5.41
2023-03-11T09:03:35.735Z,5.33
2023-03-11T09:04:35.759Z,5.39
2023-03-11T09:05:35.817Z,5.42
2023-03-11T09:06:35.807Z,5.45
2023-03-11T09:07:35.833Z,5.51
2023-03-11T09:08:35.855Z,5.41
2023-03-11T09:09:35.881Z,5.44
2023-03-11T09:10:35.931Z,5.39
2023-03-11T09:11:35.941Z,5.42
2023-03-11T09:12:35.951Z,5.21
2023-03-11T09:13:35.980Z,5.28
2023-03-11T09:14:37.206Z,5.36
2023-03-11T09:15:36.030Z,5.49
2023-03-11T09:16:36.120Z,5.57
2023-03-11T09:17:36.077Z,5.73
2023-03-11T09:18:36.096Z,5.75
2023-03-11T09:19:36.122Z,5.84
2023-03-11T09:20:36.144Z,5.96
2023-03-11T09:21:36.172Z,6.06
2023-03-11T09:22:36.196Z,5.89
2023-03-11T09:23:36.228Z,5.87
2023-03-11T09:24:36.242Z,5.80
2023-03-11T09:25:36.267Z,5.67
2023-03-11T09:26:36.347Z,5.62
2023-03-11T09:27:36.316Z,5.89
2023-03-11T09:28:36.338Z,6.05
2023-03-11T09:29:36.368Z,6.17
2023-03-11T09:30:36.393Z,6.18
2023-03-11T09:31:36.468Z,6.40
2023-03-11T09:32:36.487Z,6.24
2023-03-11T09:33:36.464Z,6.25
2023-03-11T09:34:36.484Z,6.25
2023-03-11T09:35:36.605Z,6.17
2023-03-11T09:36:36.533Z,6.14
2023-03-11T09:37:36.565Z,6.15
2023-03-11T09:38:36.580Z,6.13
2023-03-11T09:39:36.605Z,6.14
2023-03-11T09:40:36.626Z,6.15
2023-03-11T09:41:44.929Z,6.03
2023-03-11T09:42:36.701Z,5.92
2023-03-11T09:43:36.708Z,5.82
2023-03-11T09:44:36.735Z,5.82
2023-03-11T09:45:36.753Z,5.73
2023-03-11T09:46:36.834Z,5.70
2023-03-11T09:47:36.797Z,5.73
2023-03-11T09:48:36.863Z,5.72
2023-03-11T09:49:36.846Z,5.64
2023-03-11T09:50:36.867Z,5.72
2023-03-11T09:51:36.891Z,5.70
2023-03-11T09:52:36.919Z,5.77
2023-03-11T09:53:36.938Z,5.60
2023-03-11T09:54:36.960Z,5.60
2023-03-11T09:55:36.987Z,5.46
2023-03-11T09:56:37.006Z,5.45
2023-03-11T09:57:37.037Z,5.49
2023-03-11T09:58:37.074Z,5.57
2023-03-11T09:59:37.080Z,5.59
2023-03-11T10:00:37.099Z,5.62
2023-03-11T10:01:37.127Z,5.70
2023-03-11T10:02:37.319Z,5.85
2023-03-11T10:03:39.731Z,6.02
2023-03-11T10:04:37.198Z,6.10
2023-03-11T10:05:37.219Z,6.29
2023-03-11T10:06:37.246Z,6.26
2023-03-11T10:07:37.268Z,6.34
2023-03-11T10:08:37.294Z,6.42
2023-03-11T10:09:39.355Z,6.47
2023-03-11T10:10:37.342Z,6.44
2023-03-11T10:11:37.375Z,6.49
2023-03-11T10:12:37.389Z,6.67
2023-03-11T10:13:37.427Z,6.55
2023-03-11T10:14:37.460Z,6.55
2023-03-11T10:15:39.465Z,6.62
2023-03-11T10:16:37.537Z,6.85
2023-03-11T10:17:37.515Z,6.94
2023-03-11T10:18:37.533Z,7.01
2023-03-11T10:19:37.556Z,7.11
2023-03-11T10:20:37.579Z,7.05
2023-03-11T10:21:37.603Z,7.00
2023-03-11T10:22:37.629Z,6.98
2023-03-11T10:23:37.651Z,7.05
2023-03-11T10:24:37.677Z,7.03
2023-03-11T10:25:37.698Z,7.08
2023-03-11T10:26:37.731Z,6.88
2023-03-11T10:27:37.749Z,6.80
2023-03-11T10:28:37.774Z,6.98
2023-03-11T10:29:37.799Z,6.97
2023-03-11T10:30:37.840Z,7.04
2023-03-11T10:31:37.885Z,6.93
2023-03-11T10:32:37.881Z,6.85
2023-03-11T10:33:37.897Z,6.67
2023-03-11T10:34:37.940Z,6.61
2023-03-11T10:35:38.084Z,6.49
2023-03-11T10:36:37.972Z,6.55
2023-03-11T10:37:48.811Z,6.57
2023-03-11T10:38:38.022Z,6.33
2023-03-11T10:39:38.056Z,6.26
2023-03-11T10:40:38.069Z,6.28
2023-03-11T10:41:38.090Z,6.17
2023-03-11T10:42:38.117Z,6.26
2023-03-11T10:43:38.140Z,6.39
2023-03-11T10:44:38.171Z,6.37
2023-03-11T10:45:38.315Z,6.58
2023-03-11T10:46:38.231Z,6.72
2023-03-11T10:47:38.238Z,6.67
2023-03-11T10:48:38.260Z,6.83
2023-03-11T10:49:38.283Z,6.95
2023-03-11T10:50:38.309Z,6.94
2023-03-11T10:51:38.332Z,7.05
2023-03-11T10:52:38.358Z,7.04
2023-03-11T10:53:38.382Z,7.09
2023-03-11T10:54:38.425Z,7.00
2023-03-11T10:55:38.433Z,7.16
2023-03-11T10:56:38.465Z,7.26
2023-03-11T10:57:38.479Z,7.19
2023-03-11T10:58:38.509Z,7.21
2023-03-11T10:59:38.529Z,7.26
2023-03-11T11:00:38.557Z,7.44
2023-03-11T11:01:38.626Z,7.51
2023-03-11T11:02:38.624Z,7.58
2023-03-11T11:03:38.633Z,7.71
2023-03-11T11:04:38.658Z,7.74
2023-03-11T11:05:38.678Z,7.64
2023-03-11T11:06:38.710Z,7.73
2023-03-11T11:07:38.729Z,7.73
2023-03-11T11:08:38.753Z,7.73
2023-03-11T11:09:38.777Z,7.71
2023-03-11T11:10:38.801Z,7.63
2023-03-11T11:11:38.827Z,7.59
2023-03-11T11:12:38.853Z,7.64
2023-03-11T11:13:38.878Z,7.51
2023-03-11T11:14:38.902Z,7.48
2023-03-11T11:15:38.929Z,7.52
2023-03-11T11:16:39.066Z,7.54
2023-03-11T11:17:38.976Z,7.58
2023-03-11T11:18:39.026Z,7.64
2023-03-11T11:19:39.028Z,7.63
2023-03-11T11:20:39.053Z,7.67
2023-03-11T11:21:39.078Z,7.68
2023-03-11T11:22:39.102Z,7.61
2023-03-11T11:23:39.127Z,7.55
2023-03-11T11:24:39.152Z,7.44
2023-03-11T11:25:39.179Z,7.49
2023-03-11T11:26:39.204Z,7.47
2023-03-11T11:27:39.226Z,7.45
2023-03-11T11:28:39.253Z,7.26
2023-03-11T11:29:39.277Z,7.34
2023-03-11T11:30:39.310Z,7.36
2023-03-11T11:31:39.325Z,7.29
2023-03-11T11:32:39.452Z,7.09
2023-03-11T11:33:39.377Z,7.01
2023-03-11T11:34:39.436Z,7.00
2023-03-11T11:35:39.447Z,7.09
2023-03-11T11:36:39.451Z,7.03
2023-03-11T11:37:39.473Z,6.95
2023-03-11T11:38:39.502Z,6.88
2023-03-11T11:39:39.524Z,6.97
2023-03-11T11:40:39.548Z,6.93
2023-03-11T11:41:39.569Z,6.94
2023-03-11T11:42:39.597Z,6.98
2023-03-11T11:43:39.623Z,7.04
2023-03-11T11:44:39.661Z,6.93
2023-03-11T11:45:39.668Z,7.00
2023-03-11T11:46:39.708Z,7.00
2023-03-11T11:47:39.723Z,6.72
2023-03-11T11:48:39.744Z,6.90
2023-03-11T11:49:39.766Z,6.73
2023-03-11T11:50:39.816Z,6.62
2023-03-11T11:51:39.816Z,6.46
2023-03-11T11:52:39.844Z,6.44
2023-03-11T11:53:39.868Z,6.40
2023-03-11T11:54:39.890Z,6.54
2023-03-11T11:55:39.926Z,6.70
2023-03-11T11:56:39.943Z,6.70
2023-03-11T11:57:39.961Z,6.85
2023-03-11T11:58:39.989Z,6.83
2023-03-11T11:59:40.010Z,6.85
2023-03-11T12:00:40.035Z,6.86
2023-03-11T12:01:40.058Z,6.97
2023-03-11T12:02:40.084Z,7.01
2023-03-11T12:03:40.181Z,7.04
2023-03-11T12:04:40.135Z,7.09
2023-03-11T12:05:40.254Z,7.11
2023-03-11T12:06:40.201Z,7.26
2023-03-11T12:07:40.204Z,7.23
2023-03-11T12:08:40.234Z,7.33
2023-03-11T12:09:40.252Z,7.51
2023-03-11T12:10:40.288Z,7.47
2023-03-11T12:11:41.903Z,7.52
2023-03-11T12:12:40.327Z,7.61
2023-03-11T12:13:40.354Z,7.75
2023-03-11T12:14:40.378Z,7.86
2023-03-11T12:15:40.405Z,7.74
2023-03-11T12:16:40.426Z,7.78
2023-03-11T12:17:40.452Z,7.70
2023-03-11T12:18:40.479Z,7.56
2023-03-11T12:19:40.499Z,7.56
2023-03-11T12:20:40.525Z,7.56
2023-03-11T12:21:40.549Z,7.55
2023-03-11T12:22:40.598Z,7.56
2023-03-11T12:23:40.600Z,7.58
2023-03-11T12:24:40.624Z,7.67
2023-03-11T12:25:40.646Z,7.47
2023-03-11T12:26:40.672Z,7.59
2023-03-11T12:27:40.697Z,7.80
2023-03-11T12:28:40.722Z,7.88
2023-03-11T12:29:40.749Z,8.03
2023-03-11T12:30:40.773Z,8.16
2023-03-11T12:31:40.888Z,8.14
2023-03-11T12:32:40.839Z,8.07
2023-03-11T12:33:40.849Z,8.17
2023-03-11T12:34:40.874Z,8.11
2023-03-11T12:35:40.997Z,7.85
2023-03-11T12:36:40.925Z,7.75
2023-03-11T12:37:40.948Z,7.59
2023-03-11T12:38:40.994Z,7.56
2023-03-11T12:39:41.001Z,7.49
2023-03-11T12:40:41.030Z,7.33
2023-03-11T12:41:41.053Z,7.27
2023-03-11T12:42:41.085Z,7.34
2023-03-11T12:43:41.102Z,7.31
2023-03-11T12:44:41.137Z,7.30
2023-03-11T12:45:41.150Z,7.48
2023-03-11T12:46:41.255Z,7.44
2023-03-11T12:47:41.200Z,7.41
2023-03-11T12:48:41.226Z,7.52
2023-03-11T12:49:41.250Z,7.67
2023-03-11T12:50:41.285Z,7.71
2023-03-11T12:51:41.300Z,7.63
2023-03-11T12:52:41.326Z,7.63
2023-03-11T12:53:41.348Z,7.49
2023-03-11T12:54:41.397Z,7.49
2023-03-11T12:55:41.402Z,7.63
2023-03-11T12:56:41.428Z,7.61
2023-03-11T12:57:41.448Z,7.64
2023-03-11T12:58:41.477Z,7.64
2023-03-11T12:59:41.501Z,7.39
2023-03-11T13:00:41.525Z,7.45
2023-03-11T13:01:41.600Z,7.31
2023-03-11T13:02:41.604Z,7.47
2023-03-11T13:03:41.601Z,7.51
2023-03-11T13:04:41.633Z,7.63
2023-03-11T13:05:41.652Z,7.52
2023-03-11T13:06:41.678Z,7.58
2023-03-11T13:07:41.776Z,7.58
2023-03-11T13:08:41.726Z,7.59
2023-03-11T13:09:41.752Z,7.70
2023-03-11T13:10:41.812Z,7.75
2023-03-11T13:11:41.801Z,7.75
2023-03-11T13:12:41.825Z,7.86
2023-03-11T13:13:41.850Z,7.63
2023-03-11T13:14:41.888Z,7.51
2023-03-11T13:15:41.905Z,7.34
2023-03-11T13:16:41.931Z,7.45
2023-03-11T13:17:41.948Z,7.48
2023-03-11T13:18:41.981Z,7.49